Little Rock, AR (72212)

10:22 PM CDT on May 23, 2015 (GMT -0500)
Turtle Creek | | Change Station
CLOSE
Current Station
Personal Weather Station
Location: Little Rock, AR
Elevation: 577 ft
Nearby Weather Stations

Elev 577 ft 34.76 °N, 92.41 °W | Updated 8 minutes ago

Partly Cloudy
Partly Cloudy
73.2 °F
Feels Like 73 °F
N
1.1
Wind Variable Wind from SSW

Today
High -- | Low -- °F
--% Chance of Precip.
Yesterday
High -- | Low -- °F
Precip. -- in
6:01 AM 8:11 PM
Waxing Crescent, 35% visible
Pressure 30.09 in
Visibility 10.0 miles
Clouds Few 12000 ft
Mostly Cloudy 25000 ft
Heat Index 73 °F
Dew Point 67 °F
Humidity 80%
Rainfall 0.00 in
Snow Depth Not available.
UV 0 out of 12
Pollen 7.40 out of 12
Air Quality Not available.
Flu Activity No Activity
METAR KLIT 240253Z 13005KT 10SM FEW120 BKN250 23/18 A3008 RMK AO2 SLP187 T02280178 55000

More Conditions Fewer Conditions

Pressure 30.09 in
Visibility 10.0 miles
Clouds Few 12000 ft
Mostly Cloudy 25000 ft
Heat Index 73 °F
Dew Point 67 °F
Humidity 80%
Rainfall 0.00 in
Snow Depth Not available.
UV 0 out of 12
Pollen 7.40 out of 12
Air Quality Not available.
Flu Activity No Activity
METAR KLIT 240253Z 13005KT 10SM FEW120 BKN250 23/18 A3008 RMK AO2 SLP187 T02280178 55000

More Conditions Fewer Conditions

10-Day Weather Forecast

Almanac

Astronomy

May. 23, 2015 Rise Set
Actual Time
Civil Twilight
Nautical Twilight
Astronomical Twilight
Moon
Length of Visible Light
Length of Day
Tomorrow will be .
, % of the Moon is Illuminated

Today's Extremes

State Highs State Lows

Community

WunderPhotos

Upload Photos

1,823,673 photos uploaded!

WunderBlogs® & News

Nearby

Air Quality

  Air Quality AQ Index Pollutant
Not available.

Snow Depth

Station Depth Elevation

Earthquake Activity

City Distance Mag. Time & Date
Minimum magnitude displayed is 2.5.

Coastal Water Temperatures

Place Temperature

Stations

Nearby Weather Stations

Station Location Temp. Windchill Dew Point Humidity Wind Precip. Elev Updated Type